Time;durP1;ratioP1;P1;durP2;ratioP2;P2;SDS_P1;SDS_P2;PMS_P1;PMS_P2;Temp;Humidity;BMP_temperature;BMP_pressure;BME280_temperature;BME280_humidity;BME280_pressure;Samples;Min_cycle;Max_cycle;Signal;HPM_P1;HPM_P2
2022/07/17 00:01:37;;;;;;;5.97;1.83;;;;;13.90;102158.00;;;;10425870;28;20217;-79
2022/07/17 00:06:40;;;;;;;3.10;2.00;;;;;13.80;102163.00;;;;10436058;28;20284;-79
2022/07/17 00:11:42;;;;;;;5.27;1.93;;;;;13.70;102153.00;;;;10457866;28;20205;-79
2022/07/17 00:16:44;;;;;;;4.57;1.80;;;;;13.60;102159.00;;;;10406038;28;20204;-79
2022/07/17 00:21:46;;;;;;;5.73;2.00;;;;;13.50;102161.00;;;;10462669;28;20197;-79
2022/07/17 00:26:50;;;;;;;2.60;1.67;;;;;13.50;102166.00;;;;10445069;28;20616;-79
2022/07/17 00:31:52;;;;;;;3.53;1.93;;;;;13.40;102174.00;;;;10454415;28;20202;-79
2022/07/17 00:36:54;;;;;;;6.30;2.17;;;;;13.30;102179.00;;;;10420560;28;20194;-78
2022/07/17 00:41:56;;;;;;;5.67;2.00;;;;;13.20;102166.00;;;;10440648;28;20205;-76
2022/07/17 00:46:58;;;;;;;3.20;2.13;;;;;13.10;102164.00;;;;10425317;28;20221;-76
2022/07/17 00:52:00;;;;;;;4.73;3.10;;;;;13.10;102159.00;;;;10437543;28;20201;-77
2022/07/17 00:57:06;;;;;;;3.73;2.20;;;;;13.00;102162.00;;;;10452375;28;20677;-76
2022/07/17 01:02:11;;;;;;;6.50;2.00;;;;;13.00;102168.00;;;;10429157;28;20221;-76
2022/07/17 01:07:13;;;;;;;7.40;2.33;;;;;12.80;102159.00;;;;10426465;28;20197;-77
2022/07/17 01:12:15;;;;;;;2.20;1.80;;;;;12.80;102149.00;;;;10442841;28;20267;-76
2022/07/17 01:17:18;;;;;;;5.83;2.30;;;;;12.80;102157.00;;;;10444063;28;20203;-76
2022/07/17 01:22:20;;;;;;;6.13;2.50;;;;;12.70;102159.00;;;;10459782;28;20688;-76
2022/07/17 01:27:22;;;;;;;4.33;2.13;;;;;12.60;102167.00;;;;10461127;28;20244;-77
2022/07/17 01:32:35;;;;;;;6.27;2.07;;;;;12.50;102179.00;;;;10443965;28;20690;-76
2022/07/17 01:37:39;;;;;;;5.40;2.20;;;;;12.40;102175.00;;;;10427545;28;20194;-76
2022/07/17 01:42:49;;;;;;;5.77;2.10;;;;;12.40;102178.00;;;;10458960;28;20220;-76
2022/07/17 01:47:51;;;;;;;5.73;2.27;;;;;12.20;102171.00;;;;10491296;28;20186;-76
2022/07/17 01:52:53;;;;;;;11.33;3.60;;;;;12.20;102164.00;;;;10472367;28;20201;-76
2022/07/17 01:57:55;;;;;;;3.63;2.37;;;;;12.10;102161.00;;;;10441198;28;20327;-76
2022/07/17 02:02:57;;;;;;;5.17;2.67;;;;;12.20;102138.00;;;;10432091;28;21044;-76
2022/07/17 02:07:59;;;;;;;7.90;2.40;;;;;12.10;102136.00;;;;10442488;28;20256;-77
2022/07/17 02:13:01;;;;;;;6.07;2.60;;;;;12.10;102153.00;;;;10437380;28;20198;-76
2022/07/17 02:18:03;;;;;;;4.77;2.87;;;;;12.00;102154.00;;;;10458836;28;20630;-76
2022/07/17 02:23:05;;;;;;;5.87;2.23;;;;;11.90;102157.00;;;;10449297;28;20208;-76
2022/07/17 02:28:07;;;;;;;4.57;2.70;;;;;11.90;102151.00;;;;10463423;28;20185;-76
2022/07/17 02:33:09;;;;;;;4.47;2.60;;;;;11.80;102142.00;;;;10451297;28;20594;-76
2022/07/17 02:38:11;;;;;;;5.50;2.73;;;;;11.80;102136.00;;;;10465272;28;20592;-76
2022/07/17 02:43:13;;;;;;;5.03;2.73;;;;;11.70;102148.00;;;;10447992;28;20219;-76
2022/07/17 02:48:15;;;;;;;5.60;2.67;;;;;11.70;102143.00;;;;10465583;28;20268;-76
2022/07/17 02:53:17;;;;;;;5.07;2.40;;;;;11.70;102144.00;;;;10402706;28;20291;-76
2022/07/17 02:58:20;;;;;;;3.43;2.30;;;;;11.60;102149.00;;;;10447740;28;20746;-76
2022/07/17 03:03:22;;;;;;;3.43;2.40;;;;;11.50;102158.00;;;;10480922;28;20206;-76
2022/07/17 03:08:24;;;;;;;4.00;2.37;;;;;11.30;102156.00;;;;10464252;28;20193;-76
2022/07/17 03:13:26;;;;;;;3.03;2.13;;;;;11.30;102167.00;;;;10435241;28;20221;-76
2022/07/17 03:18:29;;;;;;;3.43;2.60;;;;;11.20;102152.00;;;;10448111;28;20212;-76
2022/07/17 03:23:31;;;;;;;7.30;2.30;;;;;11.20;102167.00;;;;10458602;28;20248;-76
2022/07/17 03:28:33;;;;;;;5.10;2.43;;;;;11.10;102166.00;;;;10448583;28;20186;-76
2022/07/17 03:33:35;;;;;;;3.87;2.50;;;;;11.10;102165.00;;;;10445404;28;20281;-76
2022/07/17 03:38:37;;;;;;;5.60;2.40;;;;;11.20;102170.00;;;;10446839;28;20204;-76
2022/07/17 03:43:39;;;;;;;4.83;2.40;;;;;11.20;102155.00;;;;10462357;28;20193;-76
2022/07/17 03:48:41;;;;;;;5.43;2.40;;;;;11.10;102169.00;;;;10455660;28;20236;-76
2022/07/17 03:53:43;;;;;;;2.40;2.20;;;;;11.10;102162.00;;;;10441852;28;20201;-76
2022/07/17 03:58:45;;;;;;;5.37;2.20;;;;;11.10;102158.00;;;;10437079;28;20222;-76
2022/07/17 04:03:47;;;;;;;2.97;2.30;;;;;11.00;102162.00;;;;10413818;28;20237;-76
2022/07/17 04:08:49;;;;;;;4.13;3.00;;;;;11.00;102178.00;;;;10461953;28;20182;-76
2022/07/17 04:13:51;;;;;;;4.13;2.40;;;;;11.10;102177.00;;;;10477136;28;20231;-76
2022/07/17 04:18:54;;;;;;;8.53;2.60;;;;;11.20;102180.00;;;;10448769;28;20263;-76
2022/07/17 04:23:56;;;;;;;5.73;2.80;;;;;11.30;102181.00;;;;10427652;28;20259;-76
2022/07/17 04:28:58;;;;;;;4.23;2.90;;;;;11.50;102187.00;;;;10444168;28;20207;-76
2022/07/17 04:34:00;;;;;;;5.20;2.73;;;;;11.60;102193.00;;;;10421947;28;20193;-76
2022/07/17 04:39:02;;;;;;;4.80;2.47;;;;;11.70;102193.00;;;;10460518;28;20217;-76
2022/07/17 04:44:04;;;;;;;4.90;2.83;;;;;11.80;102213.00;;;;10459797;28;20201;-77
2022/07/17 04:49:06;;;;;;;5.00;3.27;;;;;12.00;102208.00;;;;10421423;28;20244;-76
2022/07/17 04:54:07;;;;;;;6.97;3.40;;;;;12.10;102212.00;;;;10459604;28;20603;-76
2022/07/17 04:59:10;;;;;;;5.77;3.87;;;;;12.30;102208.00;;;;10420835;28;20296;-76
2022/07/17 05:04:12;;;;;;;10.87;3.77;;;;;12.70;102205.00;;;;10381308;28;20676;-76
2022/07/17 05:09:14;;;;;;;5.73;3.60;;;;;13.10;102204.00;;;;10440988;28;20215;-76
2022/07/17 05:14:16;;;;;;;5.10;3.30;;;;;13.40;102178.00;;;;10443566;28;20284;-76
2022/07/17 05:19:18;;;;;;;7.07;3.60;;;;;13.80;102189.00;;;;10493946;28;20668;-76
2022/07/17 05:24:20;;;;;;;6.30;3.73;;;;;14.20;102184.00;;;;10424291;28;20583;-76
2022/07/17 05:29:22;;;;;;;7.20;4.60;;;;;14.50;102194.00;;;;10437950;28;20194;-76
2022/07/17 05:34:24;;;;;;;7.93;4.13;;;;;14.80;102205.00;;;;10432782;28;20193;-76
2022/07/17 05:39:26;;;;;;;10.87;4.30;;;;;15.30;102186.00;;;;10476604;28;20206;-76
2022/07/17 05:44:28;;;;;;;7.40;4.20;;;;;15.90;102193.00;;;;10443370;28;20204;-76
2022/07/17 05:49:30;;;;;;;8.17;4.03;;;;;16.60;102202.00;;;;10468414;28;20198;-76
2022/07/17 05:54:32;;;;;;;5.93;3.40;;;;;17.40;102208.00;;;;10440475;28;20270;-77
2022/07/17 05:59:34;;;;;;;7.07;3.00;;;;;18.00;102212.00;;;;10448097;28;20326;-77
2022/07/17 06:04:36;;;;;;;6.65;3.05;;;;;18.50;102220.00;;;;10449804;28;20288;-76
2022/07/17 06:09:39;;;;;;;6.90;2.78;;;;;19.00;102224.00;;;;10426025;28;20194;-77
2022/07/17 06:14:41;;;;;;;6.13;3.00;;;;;19.40;102206.00;;;;10419694;28;20229;-77
2022/07/17 06:19:43;;;;;;;5.78;2.65;;;;;19.70;102208.00;;;;10424481;28;20231;-77
2022/07/17 06:24:46;;;;;;;4.13;2.53;;;;;20.10;102223.00;;;;10418641;28;20193;-77
2022/07/17 06:29:48;;;;;;;4.20;2.58;;;;;20.40;102227.00;;;;10465747;28;20177;-77
2022/07/17 06:34:57;;;;;;;5.10;2.47;;;;;20.70;102221.00;;;;10432575;28;20193;-77
2022/07/17 06:40:00;;;;;;;6.25;2.33;;;;;20.90;102224.00;;;;10424871;28;20620;-77
2022/07/17 06:45:02;;;;;;;3.88;2.08;;;;;21.20;102218.00;;;;10422787;28;20660;-77
2022/07/17 06:50:05;;;;;;;6.60;2.33;;;;;21.70;102222.00;;;;10447878;28;20247;-77
2022/07/17 06:55:07;;;;;;;4.88;2.33;;;;;22.00;102225.00;;;;10444361;28;20660;-77
2022/07/17 07:00:10;;;;;;;8.48;2.10;;;;;22.20;102217.00;;;;10415952;28;20217;-77
2022/07/17 07:05:12;;;;;;;2.63;1.77;;;;;22.60;102225.00;;;;10461761;28;20205;-78
2022/07/17 07:10:14;;;;;;;4.93;2.08;;;;;23.10;102228.00;;;;10474811;28;20197;-78
2022/07/17 07:15:16;;;;;;;5.65;2.45;;;;;23.40;102237.00;;;;10451436;28;20188;-78
2022/07/17 07:20:18;;;;;;;5.60;2.22;;;;;23.60;102234.00;;;;10448039;28;20531;-78
2022/07/17 07:25:21;;;;;;;5.90;2.30;;;;;23.90;102243.00;;;;10437811;28;20190;-78
2022/07/17 07:30:24;;;;;;;6.20;2.15;;;;;24.20;102246.00;;;;10474231;28;20660;-78
2022/07/17 07:35:26;;;;;;;7.35;2.20;;;;;24.60;102239.00;;;;10475136;28;20277;-78
2022/07/17 07:40:28;;;;;;;5.70;2.30;;;;;24.90;102239.00;;;;10432152;28;20205;-79
2022/07/17 07:45:34;;;;;;;7.20;2.47;;;;;25.50;102246.00;;;;10456435;28;20194;-79
2022/07/17 07:50:36;;;;;;;6.45;2.58;;;;;25.50;102252.00;;;;10460071;28;20262;-79
2022/07/17 07:55:38;;;;;;;6.50;2.20;;;;;25.70;102256.00;;;;10448926;28;20560;-79
2022/07/17 08:00:43;;;;;;;7.10;2.90;;;;;26.10;102264.00;;;;10477988;28;20213;-79
2022/07/17 08:05:46;;;;;;;5.78;2.60;;;;;26.60;102255.00;;;;10474401;28;20189;-79
2022/07/17 08:10:48;;;;;;;7.82;2.05;;;;;27.20;102252.00;;;;10446214;28;20193;-79
2022/07/17 08:15:50;;;;;;;6.40;2.20;;;;;27.00;102250.00;;;;10446218;28;20185;-79
2022/07/17 08:20:53;;;;;;;4.97;1.77;;;;;27.30;102243.00;;;;10437046;28;20267;-79
2022/07/17 08:25:55;;;;;;;4.28;1.63;;;;;27.70;102239.00;;;;10433639;28;20211;-79
2022/07/17 08:30:58;;;;;;;3.95;1.85;;;;;28.20;102244.00;;;;10462447;28;20194;-79
2022/07/17 08:36:00;;;;;;;9.40;2.33;;;;;28.40;102236.00;;;;10447313;28;20273;-79
2022/07/17 08:41:04;;;;;;;4.43;1.15;;;;;28.60;102237.00;;;;10425377;28;20212;-79
2022/07/17 08:46:10;;;;;;;3.50;1.55;;;;;28.80;102228.00;;;;10460015;28;20238;-79
2022/07/17 08:51:16;;;;;;;7.00;2.05;;;;;29.10;102232.00;;;;10457203;28;20691;-79
2022/07/17 08:56:18;;;;;;;7.15;1.65;;;;;29.30;102227.00;;;;10455885;28;20205;-77
2022/07/17 09:01:21;;;;;;;4.03;1.80;;;;;29.40;102236.00;;;;10460041;28;20205;-78
2022/07/17 09:06:24;;;;;;;6.28;1.80;;;;;29.50;102231.00;;;;10460578;28;20196;-78
2022/07/17 09:11:29;;;;;;;5.75;1.67;;;;;29.70;102224.00;;;;10477196;28;20201;-77
2022/07/17 09:16:35;;;;;;;3.30;1.50;;;;;29.60;102232.00;;;;10460216;28;20192;-80
2022/07/17 09:21:37;;;;;;;6.43;1.80;;;;;29.70;102225.00;;;;10484339;28;20545;-80
2022/07/17 09:26:46;;;;;;;7.85;2.13;;;;;30.10;102219.00;;;;10474636;28;20182;-80
2022/07/17 09:31:51;;;;;;;3.97;1.80;;;;;30.30;102225.00;;;;10455296;28;20189;-79
2022/07/17 09:37:00;;;;;;;6.97;2.20;;;;;30.40;102232.00;;;;10416037;28;20768;-78
2022/07/17 09:42:02;;;;;;;5.97;1.48;;;;;30.70;102236.00;;;;10426789;28;20201;-79
2022/07/17 09:47:04;;;;;;;4.93;2.05;;;;;30.90;102241.00;;;;10448500;28;20232;-77
2022/07/17 09:52:06;;;;;;;2.70;1.50;;;;;30.90;102251.00;;;;10483959;28;20581;-77
2022/07/17 09:57:10;;;;;;;6.75;1.80;;;;;31.20;102252.00;;;;10433677;28;20205;-77
2022/07/17 10:02:13;;;;;;;4.60;1.73;;;;;31.50;102256.00;;;;10482889;28;20954;-77
2022/07/17 10:07:16;;;;;;;4.18;1.52;;;;;31.80;102248.00;;;;10458411;28;20182;-77
2022/07/17 10:12:19;;;;;;;4.88;1.95;;;;;32.00;102242.00;;;;10464633;28;20213;-77
2022/07/17 10:17:23;;;;;;;4.78;1.90;;;;;31.90;102240.00;;;;10449697;28;20610;-77
2022/07/17 10:22:26;;;;;;;6.63;1.98;;;;;31.90;102232.00;;;;10407011;28;20867;-77
2022/07/17 10:27:29;;;;;;;8.25;2.33;;;;;32.20;102219.00;;;;10440535;28;20269;-79
2022/07/17 10:32:33;;;;;;;3.28;1.80;;;;;32.20;102214.00;;;;10441891;28;20239;-79
2022/07/17 10:37:35;;;;;;;3.83;1.55;;;;;32.70;102212.00;;;;10433128;28;20280;-79
2022/07/17 10:42:47;;;;;;;6.43;1.98;;;;;32.90;102216.00;;;;10422576;28;20274;-79
2022/07/17 10:47:58;;;;;;;2.05;1.67;;;;;32.70;102208.00;;;;10430257;28;20189;-79
2022/07/17 10:53:09;;;;;;;3.97;2.10;;;;;33.00;102207.00;;;;10472896;28;20305;-77
2022/07/17 10:58:19;;;;;;;4.95;2.00;;;;;33.00;102213.00;;;;10422882;28;20206;-77
2022/07/17 11:03:21;;;;;;;5.35;1.75;;;;;33.30;102214.00;;;;10438993;28;20213;-78
2022/07/17 11:08:23;;;;;;;4.88;2.40;;;;;33.60;102209.00;;;;10466473;28;20611;-77
2022/07/17 11:13:25;;;;;;;3.88;1.98;;;;;33.20;102209.00;;;;10456156;28;20269;-77
2022/07/17 11:18:28;;;;;;;3.65;2.10;;;;;33.70;102205.00;;;;10461528;28;20193;-77
2022/07/17 11:23:34;;;;;;;2.17;1.92;;;;;34.00;102212.00;;;;10460412;28;20224;-77
2022/07/17 11:28:43;;;;;;;5.38;1.80;;;;;34.10;102198.00;;;;10440590;28;20573;-76
2022/07/17 11:33:56;;;;;;;2.63;1.98;;;;;34.50;102202.00;;;;10435622;28;20229;-80
2022/07/17 11:39:02;;;;;;;4.10;2.30;;;;;34.20;102197.00;;;;10421035;28;20204;-77
2022/07/17 11:44:09;;;;;;;4.70;2.25;;;;;34.00;102195.00;;;;10459549;28;20206;-77
2022/07/17 11:49:24;;;;;;;5.97;2.28;;;;;34.20;102188.00;;;;10447827;28;20193;-78
2022/07/17 11:54:26;;;;;;;4.80;2.70;;;;;33.80;102180.00;;;;10459660;28;20273;-79
2022/07/17 11:59:31;;;;;;;6.50;2.53;;;;;33.70;102179.00;;;;10452316;28;20596;-76
2022/07/17 12:04:33;;;;;;;4.68;2.72;;;;;33.70;102176.00;;;;10456139;28;20194;-79
2022/07/17 12:09:35;;;;;;;4.68;2.70;;;;;33.50;102172.00;;;;10474250;28;20876;-79
2022/07/17 12:14:49;;;;;;;3.83;2.20;;;;;34.20;102168.00;;;;10474489;28;20190;-79
2022/07/17 12:19:52;;;;;;;5.85;2.92;;;;;34.40;102177.00;;;;10414498;28;20190;-79
2022/07/17 12:24:55;;;;;;;3.67;2.50;;;;;33.90;102173.00;;;;10429879;28;20672;-80
2022/07/17 12:29:56;;;;;;;4.00;2.42;;;;;33.60;102169.00;;;;10470203;28;20208;-79
2022/07/17 12:34:58;;;;;;;3.40;2.28;;;;;33.90;102171.00;;;;10437297;28;20237;-79
2022/07/17 12:40:03;;;;;;;3.95;2.30;;;;;34.20;102162.00;;;;10437513;28;20194;-80
2022/07/17 12:45:06;;;;;;;2.90;2.10;;;;;34.40;102160.00;;;;10441498;28;20190;-79
2022/07/17 12:50:09;;;;;;;2.50;2.10;;;;;34.50;102166.00;;;;10422949;28;20217;-78
2022/07/17 12:55:11;;;;;;;2.53;2.10;;;;;34.40;102164.00;;;;10440920;28;20202;-79
2022/07/17 13:00:14;;;;;;;2.20;2.00;;;;;34.70;102145.00;;;;10439811;28;20732;-79
2022/07/17 13:05:16;;;;;;;5.05;2.60;;;;;34.70;102142.00;;;;10440417;28;20186;-79
2022/07/17 13:10:18;;;;;;;5.13;2.25;;;;;34.40;102134.00;;;;10442207;28;20296;-79
2022/07/17 13:15:20;;;;;;;5.72;2.53;;;;;34.50;102133.00;;;;10404329;28;20260;-79
2022/07/17 13:20:29;;;;;;;2.33;2.13;;;;;35.30;102130.00;;;;10427253;28;20190;-79
2022/07/17 13:25:31;;;;;;;2.53;2.28;;;;;34.90;102118.00;;;;10452928;28;20215;-78
2022/07/17 13:30:34;;;;;;;3.22;2.20;;;;;35.50;102118.00;;;;10445500;28;20205;-78
2022/07/17 13:35:36;;;;;;;2.70;2.05;;;;;36.50;102117.00;;;;10453539;28;20663;-79
2022/07/17 13:40:38;;;;;;;4.35;1.90;;;;;37.20;102116.00;;;;10448786;28;20229;-79
2022/07/17 13:45:40;;;;;;;2.67;2.20;;;;;37.50;102100.00;;;;10411130;28;20228;-76
2022/07/17 13:50:43;;;;;;;2.08;1.80;;;;;38.10;102096.00;;;;10449780;28;20208;-78
2022/07/17 13:55:45;;;;;;;3.05;2.33;;;;;37.90;102098.00;;;;10444526;28;20207;-78
2022/07/17 14:00:53;;;;;;;2.70;2.15;;;;;38.10;102075.00;;;;10434819;28;20222;-79
2022/07/17 14:05:55;;;;;;;3.45;2.25;;;;;39.20;102074.00;;;;10478101;28;20602;-79
2022/07/17 14:10:59;;;;;;;4.00;2.35;;;;;39.60;102078.00;;;;10428711;28;20355;-79
2022/07/17 14:16:01;;;;;;;2.80;2.10;;;;;39.70;102073.00;;;;10405671;28;20199;-79
2022/07/17 14:21:03;;;;;;;3.33;2.10;;;;;38.80;102062.00;;;;10446405;28;20191;-79
2022/07/17 14:26:05;;;;;;;11.13;2.42;;;;;38.20;102060.00;;;;10477387;28;20202;-79
2022/07/17 14:31:07;;;;;;;2.67;1.67;;;;;36.70;102053.00;;;;10438898;28;20212;-79
2022/07/17 14:36:10;;;;;;;2.72;2.10;;;;;35.70;102054.00;;;;10454330;28;20179;-80
2022/07/17 14:41:14;;;;;;;3.00;2.20;;;;;35.20;102040.00;;;;10448901;28;20220;-79
2022/07/17 14:46:17;;;;;;;2.42;1.70;;;;;35.00;102045.00;;;;10440582;28;20194;-80
2022/07/17 14:51:20;;;;;;;2.10;1.85;;;;;34.50;102044.00;;;;10466908;28;20752;-79
2022/07/17 14:56:22;;;;;;;2.30;2.10;;;;;34.30;102033.00;;;;10451756;28;20232;-79
2022/07/17 15:01:24;;;;;;;2.58;1.90;;;;;34.00;102024.00;;;;10443024;28;20218;-79
2022/07/17 15:06:26;;;;;;;2.60;1.67;;;;;33.50;102026.00;;;;10462524;28;20224;-79
2022/07/17 15:11:28;;;;;;;2.85;1.83;;;;;33.50;102013.00;;;;10448108;28;20240;-79
2022/07/17 15:16:30;;;;;;;4.80;1.90;;;;;33.70;102020.00;;;;10454632;28;20205;-79
2022/07/17 15:21:34;;;;;;;5.50;1.80;;;;;33.50;102012.00;;;;10449240;28;20195;-79
2022/07/17 15:26:53;;;;;;;3.58;1.60;;;;;33.40;102008.00;;;;10420692;28;20190;-79
2022/07/17 15:31:55;;;;;;;1.50;1.40;;;;;33.50;101990.00;;;;10464012;28;20206;-79
2022/07/17 15:36:57;;;;;;;1.30;1.20;;;;;33.10;101997.00;;;;10479445;28;20195;-79
2022/07/17 15:41:59;;;;;;;1.35;1.15;;;;;32.70;101987.00;;;;10459500;28;20186;-79
2022/07/17 15:47:02;;;;;;;1.55;1.33;;;;;32.40;101984.00;;;;10450439;28;20224;-79
2022/07/17 15:52:06;;;;;;;2.05;1.63;;;;;32.00;101988.00;;;;10441408;28;20244;-79
2022/07/17 15:57:08;;;;;;;1.52;1.33;;;;;31.60;101969.00;;;;10467070;28;20221;-79
2022/07/17 16:02:10;;;;;;;2.35;1.10;;;;;31.20;101969.00;;;;10436737;28;20213;-79
2022/07/17 16:07:13;;;;;;;1.40;1.20;;;;;30.60;101962.00;;;;10432167;28;20214;-79
2022/07/17 16:12:16;;;;;;;1.42;1.30;;;;;30.00;101953.00;;;;10413544;28;20220;-78
2022/07/17 16:17:18;;;;;;;4.07;1.50;;;;;29.70;101952.00;;;;10447880;28;20239;-78
2022/07/17 16:22:20;;;;;;;2.35;1.30;;;;;29.60;101940.00;;;;10441189;28;20183;-80
2022/07/17 16:27:22;;;;;;;6.22;2.45;;;;;29.40;101933.00;;;;10433044;28;20702;-80
2022/07/17 16:32:25;;;;;;;4.68;1.83;;;;;29.00;101928.00;;;;10419837;28;20229;-80
2022/07/17 16:37:27;;;;;;;3.42;2.20;;;;;28.90;101919.00;;;;10403128;28;20198;-80
2022/07/17 16:42:29;;;;;;;5.95;3.20;;;;;29.00;101920.00;;;;10455864;28;20617;-80
2022/07/17 16:47:31;;;;;;;3.92;1.80;;;;;29.10;101918.00;;;;10447061;28;20198;-80
2022/07/17 16:52:36;;;;;;;2.55;1.50;;;;;29.20;101911.00;;;;10464343;28;20239;-79
2022/07/17 16:57:38;;;;;;;4.85;2.00;;;;;29.10;101909.00;;;;10433813;28;20224;-79
2022/07/17 17:02:41;;;;;;;1.88;1.42;;;;;28.90;101910.00;;;;10387863;28;20242;-80
2022/07/17 17:07:43;;;;;;;1.63;1.17;;;;;28.70;101907.00;;;;10442656;28;20197;-80
2022/07/17 17:12:46;;;;;;;4.70;2.15;;;;;28.50;101905.00;;;;10464505;28;20759;-80
2022/07/17 17:17:48;;;;;;;2.25;1.40;;;;;28.20;101912.00;;;;10416786;28;20228;-79
2022/07/17 17:22:51;;;;;;;1.42;1.20;;;;;27.90;101916.00;;;;10405072;28;20193;-79
2022/07/17 17:27:53;;;;;;;2.78;1.58;;;;;27.80;101899.00;;;;10434520;28;20641;-79
2022/07/17 17:32:55;;;;;;;3.15;1.67;;;;;27.70;101897.00;;;;10442277;28;20683;-79
2022/07/17 17:37:57;;;;;;;5.85;2.33;;;;;27.50;101893.00;;;;10459173;28;20626;-79
2022/07/17 17:42:59;;;;;;;1.98;1.42;;;;;27.40;101892.00;;;;10427008;28;20285;-79
2022/07/17 17:48:01;;;;;;;5.70;1.45;;;;;27.30;101882.00;;;;10463421;28;20280;-79
2022/07/17 17:53:03;;;;;;;1.30;1.20;;;;;27.10;101875.00;;;;10455926;28;20236;-79
2022/07/17 17:58:05;;;;;;;1.80;1.20;;;;;27.00;101879.00;;;;10447327;28;20206;-78
2022/07/17 18:03:08;;;;;;;3.20;2.00;;;;;26.90;101892.00;;;;10465189;28;20217;-78
2022/07/17 18:08:10;;;;;;;1.80;1.45;;;;;26.80;101882.00;;;;10456476;28;20663;-78
2022/07/17 18:13:12;;;;;;;4.75;2.25;;;;;26.70;101878.00;;;;10473501;28;20212;-78
2022/07/17 18:18:14;;;;;;;4.45;2.08;;;;;26.60;101880.00;;;;10471268;28;20193;-78
2022/07/17 18:23:16;;;;;;;3.30;2.25;;;;;26.40;101878.00;;;;10412504;28;20277;-78
2022/07/17 18:28:22;;;;;;;5.57;1.92;;;;;26.30;101880.00;;;;10462827;28;20181;-78
2022/07/17 18:33:23;;;;;;;2.75;1.73;;;;;26.20;101883.00;;;;10448077;28;20257;-78
2022/07/17 18:38:26;;;;;;;3.92;1.42;;;;;26.00;101885.00;;;;10470166;28;20229;-78
2022/07/17 18:43:28;;;;;;;6.10;1.80;;;;;25.80;101884.00;;;;10434168;28;20178;-78
2022/07/17 18:48:33;;;;;;;3.17;1.38;;;;;25.70;101888.00;;;;10451911;28;20268;-78
2022/07/17 18:53:35;;;;;;;1.40;1.30;;;;;25.50;101890.00;;;;10427409;28;20314;-78
2022/07/17 18:58:42;;;;;;;2.13;1.40;;;;;25.30;101886.00;;;;10434126;28;20194;-78
2022/07/17 19:03:44;;;;;;;6.90;2.05;;;;;25.10;101885.00;;;;10437788;28;20277;-78
2022/07/17 19:08:46;;;;;;;6.22;1.75;;;;;24.90;101894.00;;;;10477028;28;20251;-78
2022/07/17 19:13:48;;;;;;;3.35;1.80;;;;;24.70;101888.00;;;;10480064;28;20688;-78
2022/07/17 19:18:51;;;;;;;4.13;1.45;;;;;24.40;101885.00;;;;10441706;28;20190;-78
2022/07/17 19:23:53;;;;;;;3.03;1.70;;;;;24.20;101885.00;;;;10417350;28;20649;-78
2022/07/17 19:28:55;;;;;;;2.72;1.55;;;;;23.90;101884.00;;;;10459772;28;20312;-78
2022/07/17 19:33:57;;;;;;;3.55;2.15;;;;;23.60;101883.00;;;;10464600;28;20211;-78
2022/07/17 19:38:59;;;;;;;3.08;1.30;;;;;23.40;101882.00;;;;10422446;28;20196;-78
2022/07/17 19:44:01;;;;;;;3.55;1.35;;;;;23.10;101874.00;;;;10432967;28;20193;-78
2022/07/17 19:49:12;;;;;;;5.82;1.80;;;;;22.80;101884.00;;;;10464348;28;20202;-78
2022/07/17 19:54:14;;;;;;;4.93;1.15;;;;;22.60;101886.00;;;;10427029;28;20202;-78
2022/07/17 19:59:17;;;;;;;5.40;1.50;;;;;22.40;101886.00;;;;10431315;28;20296;-78
2022/07/17 20:04:19;;;;;;;2.28;1.30;;;;;22.10;101891.00;;;;10434243;28;20626;-78
2022/07/17 20:09:21;;;;;;;5.13;2.35;;;;;21.90;101901.00;;;;10461387;28;20197;-78
2022/07/17 20:14:23;;;;;;;4.97;2.50;;;;;21.60;101899.00;;;;10413261;28;20297;-78
2022/07/17 20:19:26;;;;;;;5.32;1.52;;;;;21.40;101900.00;;;;10432812;28;20419;-78
2022/07/17 20:24:34;;;;;;;6.22;1.75;;;;;21.20;101891.00;;;;10443698;28;20198;-78
2022/07/17 20:29:36;;;;;;;5.82;1.65;;;;;21.00;101896.00;;;;10432066;28;20235;-78
2022/07/17 20:34:38;;;;;;;3.65;1.55;;;;;20.90;101892.00;;;;10447317;28;20228;-78
2022/07/17 20:39:40;;;;;;;4.43;2.50;;;;;20.70;101896.00;;;;10456314;28;20281;-78
2022/07/17 20:44:42;;;;;;;2.83;1.27;;;;;20.60;101886.00;;;;10466716;28;20178;-78
2022/07/17 20:49:44;;;;;;;3.88;1.65;;;;;20.60;101886.00;;;;10479629;28;20185;-78
2022/07/17 20:54:48;;;;;;;6.43;1.77;;;;;20.50;101889.00;;;;10426270;28;20209;-78
2022/07/17 20:59:50;;;;;;;2.25;1.50;;;;;20.50;101877.00;;;;10429046;28;20815;-78
2022/07/17 21:04:53;;;;;;;5.40;1.80;;;;;20.40;101881.00;;;;10456399;28;20189;-78
2022/07/17 21:09:55;;;;;;;4.40;1.73;;;;;20.30;101887.00;;;;10438867;28;20220;-78
2022/07/17 21:14:59;;;;;;;5.15;2.03;;;;;20.10;101890.00;;;;10425285;28;20256;-79
2022/07/17 21:20:06;;;;;;;2.65;1.48;;;;;19.90;101895.00;;;;10439477;28;20194;-79
2022/07/17 21:25:10;;;;;;;5.10;1.83;;;;;19.70;101896.00;;;;10462662;28;20178;-79
2022/07/17 21:30:13;;;;;;;3.30;1.40;;;;;19.40;101888.00;;;;10461121;28;20186;-78
2022/07/17 21:35:15;;;;;;;4.15;1.90;;;;;19.10;101896.00;;;;10421380;28;20201;-79
2022/07/17 21:40:17;;;;;;;8.02;2.35;;;;;19.00;101900.00;;;;10457260;28;20202;-79
2022/07/17 21:45:22;;;;;;;3.70;2.35;;;;;18.90;101897.00;;;;10438907;28;20182;-79
2022/07/17 21:50:24;;;;;;;7.60;2.15;;;;;18.70;101899.00;;;;10450138;28;20182;-79
2022/07/17 21:55:27;;;;;;;3.13;1.73;;;;;18.60;101904.00;;;;10419216;28;20241;-78
2022/07/17 22:00:29;;;;;;;9.15;1.90;;;;;18.50;101908.00;;;;10444148;28;20225;-79
2022/07/17 22:05:31;;;;;;;5.78;2.80;;;;;18.40;101906.00;;;;10480646;28;20193;-79
2022/07/17 22:10:33;;;;;;;4.80;1.98;;;;;18.30;101902.00;;;;10460829;28;20590;-79
2022/07/17 22:15:35;;;;;;;3.60;1.80;;;;;18.20;101904.00;;;;10434815;28;20210;-79
2022/07/17 22:20:37;;;;;;;4.38;1.85;;;;;18.10;101905.00;;;;10449738;28;20190;-79
2022/07/17 22:25:40;;;;;;;4.25;2.17;;;;;17.90;101910.00;;;;10452355;28;20285;-78
2022/07/17 22:30:42;;;;;;;5.25;1.98;;;;;17.80;101899.00;;;;10440853;28;20189;-79
2022/07/17 22:35:44;;;;;;;4.32;1.88;;;;;17.80;101902.00;;;;10477026;28;20714;-79
2022/07/17 22:40:46;;;;;;;5.88;2.55;;;;;17.70;101895.00;;;;10425361;28;20277;-78
2022/07/17 22:45:48;;;;;;;3.75;1.60;;;;;17.50;101896.00;;;;10468090;28;20248;-79
2022/07/17 22:50:50;;;;;;;3.75;1.70;;;;;17.40;101895.00;;;;10435626;28;20193;-79
2022/07/17 22:55:52;;;;;;;7.47;1.80;;;;;17.30;101900.00;;;;10412114;28;20202;-78
2022/07/17 23:00:54;;;;;;;3.50;1.77;;;;;17.20;101893.00;;;;10427739;28;20205;-79
2022/07/17 23:05:57;;;;;;;5.33;1.83;;;;;17.10;101891.00;;;;10437165;28;20186;-79
2022/07/17 23:10:59;;;;;;;5.27;2.10;;;;;17.00;101892.00;;;;10448932;28;20182;-79
2022/07/17 23:16:02;;;;;;;5.80;2.57;;;;;16.90;101892.00;;;;10450565;28;20276;-79
2022/07/17 23:21:04;;;;;;;5.90;3.10;;;;;16.80;101888.00;;;;10429081;28;20209;-79
2022/07/17 23:26:07;;;;;;;8.37;2.80;;;;;16.70;101881.00;;;;10402062;28;20656;-79
2022/07/17 23:31:09;;;;;;;6.40;2.70;;;;;16.50;101880.00;;;;10418205;28;20244;-79
2022/07/17 23:36:11;;;;;;;5.50;2.57;;;;;16.50;101884.00;;;;10447917;28;20185;-79
2022/07/17 23:41:13;;;;;;;6.97;2.70;;;;;16.50;101887.00;;;;10443825;28;20242;-79
2022/07/17 23:46:15;;;;;;;6.67;3.00;;;;;16.40;101879.00;;;;10431044;28;20193;-79
2022/07/17 23:51:18;;;;;;;7.33;2.80;;;;;16.30;101886.00;;;;10474480;28;20282;-79
2022/07/17 23:56:20;;;;;;;9.63;3.07;;;;;16.30;101886.00;;;;10445491;28;20202;-79
